createdAt,value
2022-10-01T00:02:26.005Z,16.32
2022-10-01T00:04:53.822Z,16.28
2022-10-01T00:07:45.743Z,16.38
2022-10-01T00:10:15.341Z,16.42
2022-10-01T00:12:59.329Z,16.37
2022-10-01T00:15:40.867Z,16.33
2022-10-01T00:18:14.065Z,16.35
2022-10-01T00:20:43.712Z,16.26
2022-10-01T00:23:13.504Z,16.33
2022-10-01T00:25:42.105Z,16.25
2022-10-01T00:28:10.902Z,16.32
2022-10-01T00:30:40.539Z,16.24
2022-10-01T00:33:08.456Z,16.22
2022-10-01T00:35:37.492Z,16.26
2022-10-01T00:38:05.250Z,16.24
2022-10-01T00:40:33.040Z,16.19
2022-10-01T00:43:00.842Z,16.24
2022-10-01T00:45:29.857Z,16.25
2022-10-01T00:48:00.577Z,16.16
2022-10-01T00:50:35.845Z,16.14
2022-10-01T00:53:09.076Z,16.14
2022-10-01T00:55:43.602Z,16.05
2022-10-01T00:58:14.533Z,16.03
2022-10-01T01:00:43.339Z,16.11
2022-10-01T01:03:12.603Z,16.24
2022-10-01T01:05:40.604Z,16.30
2022-10-01T01:08:09.784Z,16.33
2022-10-01T01:11:01.415Z,16.12
2022-10-01T01:13:38.460Z,16.08
2022-10-01T01:16:34.574Z,16.00
2022-10-01T01:19:10.653Z,16.00
2022-10-01T01:21:45.715Z,15.95
2022-10-01T01:24:44.113Z,15.85
2022-10-01T01:27:31.186Z,15.83
2022-10-01T01:30:08.574Z,15.79
2022-10-01T01:33:04.809Z,15.79
2022-10-01T01:35:39.609Z,15.69
2022-10-01T01:38:22.109Z,15.71
2022-10-01T01:40:52.113Z,15.61
2022-10-01T01:43:25.253Z,15.54
2022-10-01T01:45:56.775Z,15.54
2022-10-01T01:48:25.156Z,15.54
2022-10-01T01:51:24.988Z,15.57
2022-10-01T01:53:54.334Z,15.63
2022-10-01T01:56:22.353Z,15.51
2022-10-01T01:58:51.319Z,15.44
2022-10-01T02:01:51.569Z,15.40
2022-10-01T02:04:28.503Z,15.48
2022-10-01T02:07:11.448Z,15.49
2022-10-01T02:09:47.269Z,15.49
2022-10-01T02:12:42.640Z,15.44
2022-10-01T02:15:20.867Z,15.38
2022-10-01T02:18:06.633Z,15.30
2022-10-01T02:20:42.590Z,15.28
2022-10-01T02:23:17.336Z,15.26
2022-10-01T02:25:51.535Z,15.22
2022-10-01T02:28:23.023Z,15.20
2022-10-01T02:30:54.243Z,15.12
2022-10-01T02:33:27.941Z,15.05
2022-10-01T02:35:58.701Z,14.96
2022-10-01T02:38:27.150Z,14.93
2022-10-01T02:40:58.957Z,14.90
2022-10-01T02:43:34.011Z,14.89
2022-10-01T02:46:18.524Z,14.92
2022-10-01T02:48:47.229Z,14.91
2022-10-01T02:51:43.574Z,14.90
2022-10-01T02:54:23.124Z,14.88
2022-10-01T02:57:11.781Z,14.80
2022-10-01T02:59:42.954Z,14.80
2022-10-01T03:02:11.461Z,14.75
2022-10-01T03:04:39.341Z,14.62
2022-10-01T03:07:07.263Z,14.63
2022-10-01T03:09:36.889Z,14.68
2022-10-01T03:12:06.671Z,14.70
2022-10-01T03:14:34.574Z,14.67
2022-10-01T03:17:02.365Z,14.65
2022-10-01T03:19:30.124Z,14.69
2022-10-01T03:21:57.950Z,14.69
2022-10-01T03:24:26.020Z,14.72
2022-10-01T03:26:55.909Z,14.71
2022-10-01T03:29:27.207Z,14.71
2022-10-01T03:31:55.307Z,14.68
2022-10-01T03:34:24.357Z,14.67
2022-10-01T03:36:52.907Z,14.61
2022-10-01T03:39:20.967Z,14.58
2022-10-01T03:41:48.923Z,14.61
2022-10-01T03:44:16.954Z,14.62
2022-10-01T03:46:44.955Z,14.63
2022-10-01T03:49:12.792Z,14.55
2022-10-01T03:51:40.660Z,14.67
2022-10-01T03:54:09.267Z,14.70
2022-10-01T03:56:37.900Z,14.68
2022-10-01T03:59:05.834Z,14.63
2022-10-01T04:01:33.838Z,14.61
2022-10-01T04:04:02.224Z,14.57
2022-10-01T04:06:33.240Z,14.55
2022-10-01T04:09:02.180Z,14.56
2022-10-01T04:11:30.394Z,14.43
2022-10-01T04:13:58.343Z,14.41
2022-10-01T04:16:26.198Z,14.36
2022-10-01T04:18:54.176Z,14.32
2022-10-01T04:21:22.004Z,14.27
2022-10-01T04:23:51.167Z,14.19
2022-10-01T04:26:19.324Z,14.16
2022-10-01T04:28:47.729Z,14.16
2022-10-01T04:31:24.896Z,14.15
2022-10-01T04:33:55.123Z,14.08
2022-10-01T04:36:24.505Z,14.04
2022-10-01T04:38:57.982Z,14.05
2022-10-01T04:41:31.116Z,14.02
2022-10-01T04:44:00.340Z,13.94
2022-10-01T04:46:31.407Z,14.04
2022-10-01T04:48:59.373Z,14.06
2022-10-01T04:51:30.192Z,14.00
2022-10-01T04:53:58.051Z,13.96
2022-10-01T04:56:26.166Z,13.96
2022-10-01T04:58:54.008Z,13.93
2022-10-01T05:01:22.240Z,13.94
2022-10-01T05:03:50.211Z,13.94
2022-10-01T05:06:20.935Z,13.94
2022-10-01T05:08:50.176Z,13.91
2022-10-01T05:11:19.039Z,13.95
2022-10-01T05:13:46.840Z,13.88
2022-10-01T05:16:14.751Z,13.90
2022-10-01T05:18:43.561Z,13.89
2022-10-01T05:21:11.952Z,13.85
2022-10-01T05:23:39.760Z,13.76
2022-10-01T05:26:08.199Z,13.84
2022-10-01T05:28:36.883Z,13.88
2022-10-01T05:31:05.043Z,13.98
2022-10-01T05:33:34.342Z,13.98
2022-10-01T05:36:03.683Z,13.95
2022-10-01T05:38:31.486Z,13.97
2022-10-01T05:40:59.270Z,13.96
2022-10-01T05:43:27.396Z,14.12
2022-10-01T05:45:55.500Z,14.05
2022-10-01T05:48:23.415Z,14.21
2022-10-01T05:50:51.907Z,14.17
2022-10-01T05:53:19.681Z,14.22
2022-10-01T05:55:47.537Z,14.37
2022-10-01T05:58:16.541Z,14.46
2022-10-01T06:00:44.456Z,14.68
2022-10-01T06:03:13.202Z,14.73
2022-10-01T06:05:44.217Z,14.84
2022-10-01T06:08:12.260Z,15.09
2022-10-01T06:10:40.468Z,15.10
2022-10-01T06:13:08.408Z,15.14
2022-10-01T06:15:38.280Z,15.25
2022-10-01T06:18:09.212Z,15.37
2022-10-01T06:20:38.492Z,15.53
2022-10-01T06:23:12.658Z,15.66
2022-10-01T06:25:42.089Z,15.68
2022-10-01T06:28:12.113Z,15.89
2022-10-01T06:30:40.401Z,16.09
2022-10-01T06:33:11.372Z,16.04
2022-10-01T06:35:49.789Z,16.06
2022-10-01T06:38:22.805Z,16.29
2022-10-01T06:40:58.856Z,16.35
2022-10-01T06:43:28.915Z,16.57
2022-10-01T06:45:57.097Z,16.76
2022-10-01T06:48:24.995Z,16.88
2022-10-01T06:50:53.251Z,16.74
2022-10-01T06:53:21.069Z,16.84
2022-10-01T06:55:50.112Z,16.90
2022-10-01T06:58:21.126Z,17.07
2022-10-01T07:00:50.147Z,17.27
2022-10-01T07:03:20.960Z,17.39
2022-10-01T07:05:50.401Z,17.50
2022-10-01T07:08:18.567Z,17.67
2022-10-01T07:10:47.379Z,17.64
2022-10-01T07:13:17.690Z,17.96
2022-10-01T07:15:46.122Z,17.88
2022-10-01T07:18:14.638Z,17.67
2022-10-01T07:20:42.460Z,17.76
2022-10-01T07:23:14.976Z,17.72
2022-10-01T07:25:43.939Z,17.84
2022-10-01T07:28:19.875Z,17.81
2022-10-01T07:31:07.375Z,17.86
2022-10-01T07:33:35.222Z,17.81
2022-10-01T07:36:06.722Z,17.84
2022-10-01T07:38:35.304Z,18.18
2022-10-01T07:41:03.775Z,18.23
2022-10-01T07:43:33.525Z,18.48
2022-10-01T07:46:02.976Z,18.74
2022-10-01T07:48:31.275Z,18.86
2022-10-01T07:50:59.074Z,18.86
2022-10-01T07:53:27.735Z,18.95
2022-10-01T07:55:55.555Z,19.03
2022-10-01T07:58:24.333Z,19.05
2022-10-01T08:00:57.185Z,19.28
2022-10-01T08:03:25.656Z,19.28
2022-10-01T08:05:54.400Z,19.66
2022-10-01T08:08:23.883Z,19.88
2022-10-01T08:10:55.699Z,20.14
2022-10-01T08:13:25.751Z,19.79
2022-10-01T08:15:54.909Z,19.68
2022-10-01T08:18:25.560Z,19.26
2022-10-01T08:20:53.642Z,19.45
2022-10-01T08:23:21.985Z,19.39
2022-10-01T08:25:50.071Z,19.75
2022-10-01T08:28:18.449Z,19.94
2022-10-01T08:30:46.419Z,19.85
2022-10-01T08:33:14.692Z,20.30
2022-10-01T08:35:46.379Z,20.44
2022-10-01T08:38:14.761Z,20.16
2022-10-01T08:40:49.416Z,20.22
2022-10-01T08:43:32.811Z,20.07
2022-10-01T08:46:23.123Z,19.68
2022-10-01T08:49:22.540Z,19.99
2022-10-01T08:52:03.674Z,19.60
2022-10-01T08:54:36.886Z,19.92
2022-10-01T08:57:12.508Z,20.00
2022-10-01T08:59:42.488Z,20.18
2022-10-01T09:02:24.164Z,20.14
2022-10-01T09:05:01.445Z,20.32
2022-10-01T09:07:41.890Z,20.30
2022-10-01T09:10:36.698Z,20.38
2022-10-01T09:13:23.008Z,20.48
2022-10-01T09:16:23.099Z,20.44
2022-10-01T09:18:59.265Z,20.16
2022-10-01T09:21:44.639Z,20.20
2022-10-01T09:24:22.512Z,20.22
2022-10-01T09:26:50.607Z,20.47
2022-10-01T09:29:27.714Z,20.17
2022-10-01T09:31:57.368Z,20.38
2022-10-01T09:34:34.703Z,20.50
2022-10-01T09:37:14.993Z,20.29
2022-10-01T09:39:51.431Z,20.47
2022-10-01T09:42:20.858Z,20.61
2022-10-01T09:44:49.962Z,20.55
2022-10-01T09:47:21.999Z,20.53
2022-10-01T09:49:51.396Z,20.57
2022-10-01T09:52:28.627Z,20.72
2022-10-01T09:55:02.800Z,20.81
2022-10-01T09:57:39.541Z,20.48
2022-10-01T10:00:18.482Z,20.64
2022-10-01T10:02:54.677Z,20.78
2022-10-01T10:05:27.783Z,20.94
2022-10-01T10:08:03.977Z,21.45
2022-10-01T10:10:35.919Z,21.54
2022-10-01T10:13:10.887Z,21.51
2022-10-01T10:15:49.652Z,21.12
2022-10-01T10:18:28.265Z,21.05
2022-10-01T10:20:59.300Z,21.23
2022-10-01T10:23:29.462Z,21.64
2022-10-01T10:26:03.114Z,21.81
2022-10-01T10:31:39.996Z,21.81
2022-10-01T10:34:32.726Z,22.04
2022-10-01T10:37:09.037Z,22.19
2022-10-01T10:39:41.531Z,22.08
2022-10-01T10:42:15.830Z,21.66
2022-10-01T10:44:47.835Z,21.47
2022-10-01T10:47:18.891Z,21.59
2022-10-01T10:50:39.579Z,21.77
2022-10-01T10:53:25.123Z,22.33
2022-10-01T10:56:05.390Z,22.55
2022-10-01T10:58:40.533Z,22.65
2022-10-01T11:01:13.868Z,22.11
2022-10-01T11:03:56.296Z,22.40
2022-10-01T11:06:24.611Z,22.74
2022-10-01T11:09:07.360Z,22.97
2022-10-01T11:11:57.790Z,22.83
2022-10-01T11:14:35.514Z,22.84
2022-10-01T11:17:34.551Z,23.22
2022-10-01T11:20:32.566Z,23.19
2022-10-01T11:23:27.726Z,22.69
2022-10-01T11:25:58.821Z,22.33
2022-10-01T11:28:33.311Z,22.61
2022-10-01T11:31:17.690Z,22.74
2022-10-01T11:34:11.392Z,22.55
2022-10-01T11:37:00.466Z,22.57
2022-10-01T11:39:32.782Z,22.45
2022-10-01T11:42:10.590Z,23.12
2022-10-01T11:45:03.382Z,23.13
2022-10-01T11:47:44.450Z,23.51
2022-10-01T11:50:20.586Z,23.24
2022-10-01T11:53:09.030Z,23.22
2022-10-01T11:56:12.667Z,22.99
2022-10-01T11:59:02.576Z,22.99
2022-10-01T12:01:42.505Z,22.99
2022-10-01T12:04:16.761Z,23.00
2022-10-01T12:07:01.895Z,22.62
2022-10-01T12:09:53.288Z,22.67
2022-10-01T12:12:31.513Z,23.00
2022-10-01T12:15:17.112Z,23.21
2022-10-01T12:18:14.585Z,23.24
2022-10-01T12:20:51.971Z,22.95
2022-10-01T12:23:30.090Z,23.01
2022-10-01T12:26:13.500Z,22.90
2022-10-01T12:28:55.583Z,22.81
2022-10-01T12:31:38.215Z,22.91
2022-10-01T12:34:14.536Z,23.09
2022-10-01T12:36:58.229Z,22.92
2022-10-01T12:40:10.439Z,23.16
2022-10-01T12:42:59.890Z,23.09
2022-10-01T12:46:18.681Z,23.11
2022-10-01T12:49:15.933Z,23.37
2022-10-01T12:51:56.166Z,23.54
2022-10-01T12:55:22.586Z,24.36
2022-10-01T12:58:01.427Z,23.76
2022-10-01T13:00:42.433Z,24.25
2022-10-01T13:03:10.911Z,24.25
2022-10-01T13:05:57.781Z,24.67
2022-10-01T13:08:35.011Z,24.58
2022-10-01T13:11:10.029Z,24.35
2022-10-01T13:13:41.086Z,24.25
2022-10-01T13:16:09.771Z,23.85
2022-10-01T13:19:04.841Z,24.32
2022-10-01T13:22:08.708Z,24.32
2022-10-01T13:25:08.729Z,23.91
2022-10-01T13:27:51.905Z,24.00
2022-10-01T13:30:24.228Z,24.03
2022-10-01T13:32:57.974Z,24.13
2022-10-01T13:35:35.572Z,24.22
2022-10-01T13:38:29.300Z,24.14
2022-10-01T13:41:01.592Z,24.06
2022-10-01T13:43:32.160Z,23.95
2022-10-01T13:46:10.520Z,24.16
2022-10-01T13:48:49.532Z,24.37
2022-10-01T13:51:17.848Z,24.40
2022-10-01T13:53:50.164Z,24.72
2022-10-01T13:56:35.561Z,24.67
2022-10-01T13:59:20.876Z,24.72
2022-10-01T14:01:49.235Z,24.81
2022-10-01T14:04:44.316Z,24.64
2022-10-01T14:07:26.894Z,24.88
2022-10-01T14:09:59.555Z,24.74
2022-10-01T14:13:17.322Z,24.99
2022-10-01T14:15:59.990Z,24.90
2022-10-01T14:18:38.267Z,24.45
2022-10-01T14:21:26.070Z,24.42
2022-10-01T14:24:07.006Z,24.62
2022-10-01T14:26:58.573Z,24.23
2022-10-01T14:29:38.068Z,23.97
2022-10-01T14:32:34.183Z,23.58
2022-10-01T14:35:05.546Z,23.32
2022-10-01T14:37:39.607Z,23.38
2022-10-01T14:40:21.886Z,23.32
2022-10-01T14:43:15.398Z,23.12
2022-10-01T14:46:16.846Z,23.23
2022-10-01T14:48:57.366Z,22.83
2022-10-01T14:51:31.249Z,22.71
2022-10-01T14:54:00.901Z,22.45
2022-10-01T14:56:29.602Z,22.33
2022-10-01T14:59:03.424Z,22.25
2022-10-01T15:01:31.708Z,22.10
2022-10-01T15:04:00.022Z,21.90
2022-10-01T15:06:30.158Z,21.84
2022-10-01T15:09:18.729Z,21.65
2022-10-01T15:11:51.947Z,21.55
2022-10-01T15:14:24.500Z,21.64
2022-10-01T15:17:08.170Z,21.56
2022-10-01T15:19:45.449Z,21.45
2022-10-01T15:22:17.749Z,21.52
2022-10-01T15:24:49.726Z,21.49
2022-10-01T15:27:20.371Z,21.55
2022-10-01T15:29:56.245Z,21.43
2022-10-01T15:32:28.513Z,21.49
2022-10-01T15:35:01.571Z,21.48
2022-10-01T15:37:34.550Z,21.50
2022-10-01T15:40:09.917Z,21.25
2022-10-01T15:42:38.222Z,21.15
2022-10-01T15:45:09.507Z,21.15
2022-10-01T15:47:40.144Z,21.18
2022-10-01T15:50:11.649Z,21.24
2022-10-01T15:52:50.980Z,21.16
2022-10-01T15:55:46.175Z,21.14
2022-10-01T15:58:21.682Z,21.14
2022-10-01T16:01:01.832Z,21.15
2022-10-01T16:03:34.438Z,21.16
2022-10-01T16:06:08.568Z,20.84
2022-10-01T16:09:06.179Z,20.86
2022-10-01T16:12:19.750Z,21.03
2022-10-01T16:15:00.837Z,21.01
2022-10-01T16:17:37.172Z,20.84
2022-10-01T16:20:14.717Z,20.90
2022-10-01T16:22:44.856Z,20.79
2022-10-01T16:25:19.744Z,20.88
2022-10-01T16:28:32.732Z,20.73
2022-10-01T16:31:01.496Z,20.68
2022-10-01T16:33:29.628Z,20.69
2022-10-01T16:36:11.205Z,20.62
2022-10-01T16:38:39.860Z,20.53
2022-10-01T16:41:09.905Z,20.40
2022-10-01T16:43:39.471Z,20.46
2022-10-01T17:32:30.366Z,19.30
2022-10-01T17:34:59.325Z,19.24
2022-10-01T17:37:27.503Z,19.17
2022-10-01T17:39:55.794Z,19.12
2022-10-01T17:42:24.178Z,19.07
2022-10-01T17:44:52.558Z,18.99
2022-10-01T17:47:23.253Z,18.95
2022-10-01T17:49:51.429Z,18.85
2022-10-01T17:52:19.816Z,18.88
2022-10-01T17:54:47.955Z,18.86
2022-10-01T17:57:16.125Z,18.88
2022-10-01T17:59:44.095Z,18.85
2022-10-01T18:02:36.655Z,18.77
2022-10-01T18:05:04.633Z,18.73
2022-10-01T18:07:32.281Z,18.65
2022-10-01T18:10:01.164Z,18.61
2022-10-01T18:12:29.219Z,18.59
2022-10-01T18:14:56.805Z,18.44
2022-10-01T18:17:24.624Z,18.41
2022-10-01T18:19:54.364Z,18.43
2022-10-01T18:22:22.120Z,18.43
2022-10-01T18:24:49.868Z,18.41
2022-10-01T18:27:17.903Z,18.42
2022-10-01T18:29:45.547Z,18.48
2022-10-01T18:32:31.428Z,18.36
2022-10-01T18:35:02.252Z,18.44
2022-10-01T18:37:52.386Z,18.50
2022-10-01T18:40:30.596Z,18.53
2022-10-01T18:43:01.635Z,18.58
2022-10-01T18:45:46.697Z,18.59
2022-10-01T18:48:33.088Z,18.52
2022-10-01T18:51:21.448Z,18.50
2022-10-01T18:54:11.529Z,18.52
2022-10-01T18:57:10.762Z,18.48
2022-10-01T18:59:46.639Z,18.47
2022-10-01T19:02:49.445Z,18.45
2022-10-01T19:05:30.133Z,18.45
2022-10-01T19:08:23.664Z,18.44
2022-10-01T19:11:18.153Z,18.54
2022-10-01T19:13:55.419Z,18.56
2022-10-01T19:16:22.999Z,18.52
2022-10-01T19:19:14.623Z,18.47
2022-10-01T19:22:15.137Z,18.40
2022-10-01T19:25:08.849Z,18.34
2022-10-01T19:28:02.293Z,18.45
2022-10-01T19:30:42.009Z,18.38
2022-10-01T19:33:11.392Z,18.29
2022-10-01T19:35:48.488Z,18.21
2022-10-01T19:38:27.004Z,18.24
2022-10-01T19:41:03.658Z,18.15
2022-10-01T19:43:48.041Z,18.06
2022-10-01T19:46:29.440Z,17.93
2022-10-01T19:49:13.376Z,17.97
2022-10-01T19:51:51.631Z,17.75
2022-10-01T19:54:24.714Z,17.59
2022-10-01T19:56:55.354Z,17.54
2022-10-01T19:59:23.181Z,17.54
2022-10-01T20:02:03.210Z,17.53
2022-10-01T20:04:38.403Z,17.45
2022-10-01T20:07:12.245Z,17.34
2022-10-01T20:09:47.468Z,17.33
2022-10-01T20:12:24.151Z,17.27
2022-10-01T20:15:11.641Z,17.17
2022-10-01T20:18:03.901Z,17.17
2022-10-01T20:20:43.716Z,17.12
2022-10-01T20:23:27.494Z,17.11
2022-10-01T20:26:20.340Z,17.04
2022-10-01T20:29:19.310Z,17.05
2022-10-01T20:32:00.318Z,17.10
2022-10-01T20:34:46.171Z,17.05
2022-10-01T20:37:22.729Z,17.05
2022-10-01T20:40:02.926Z,16.98
2022-10-01T20:42:38.582Z,16.94
2022-10-01T20:45:16.952Z,16.92
2022-10-01T20:47:52.257Z,16.79
2022-10-01T20:50:25.589Z,16.87
2022-10-01T20:53:08.678Z,16.95
2022-10-01T20:55:48.161Z,16.98
2022-10-01T20:58:36.200Z,16.96
2022-10-01T21:01:10.435Z,16.96
2022-10-01T21:03:49.425Z,16.90
2022-10-01T21:06:26.695Z,16.89
2022-10-01T21:09:03.878Z,16.95
2022-10-01T21:11:34.807Z,16.88
2022-10-01T21:14:14.681Z,16.94
2022-10-01T21:16:54.438Z,16.96
2022-10-01T21:20:04.639Z,16.93
2022-10-01T21:23:14.856Z,16.99
2022-10-01T21:25:57.135Z,17.05
2022-10-01T21:28:46.136Z,17.00
2022-10-01T21:31:51.236Z,17.00
2022-10-01T21:34:19.158Z,16.93
2022-10-01T21:37:12.684Z,16.90
2022-10-01T21:40:12.779Z,16.82
2022-10-01T21:42:56.729Z,16.80
2022-10-01T21:45:46.095Z,16.61
2022-10-01T21:48:32.145Z,16.67
2022-10-01T21:51:38.945Z,16.72
2022-10-01T21:54:30.501Z,16.58
2022-10-01T21:57:43.500Z,16.41
2022-10-01T22:00:20.704Z,16.37
2022-10-01T22:02:53.731Z,16.33
2022-10-01T22:05:39.277Z,16.36
2022-10-01T22:08:21.948Z,16.33
2022-10-01T22:10:58.841Z,16.29
2022-10-01T22:13:33.432Z,16.35
2022-10-01T22:16:07.405Z,16.32
2022-10-01T22:18:47.364Z,16.55
2022-10-01T22:21:25.188Z,16.43
2022-10-01T22:24:03.961Z,16.20
2022-10-01T22:26:37.821Z,16.33
2022-10-01T22:29:07.887Z,16.22
2022-10-01T22:31:38.062Z,16.07
2022-10-01T22:34:12.680Z,15.98
2022-10-01T22:36:52.950Z,15.94
2022-10-01T22:39:30.834Z,15.89
2022-10-01T22:42:27.189Z,15.91
2022-10-01T22:44:56.197Z,15.89
2022-10-01T22:47:42.581Z,15.82
2022-10-01T22:50:10.321Z,15.88
2022-10-01T22:52:39.345Z,15.91
2022-10-01T22:55:30.823Z,16.04
2022-10-01T22:58:22.901Z,16.18
2022-10-01T23:00:56.422Z,16.24
2022-10-01T23:03:51.748Z,16.28
2022-10-01T23:06:55.785Z,16.33
2022-10-01T23:09:49.697Z,16.45
2022-10-01T23:12:37.385Z,16.42
2022-10-01T23:15:10.956Z,16.43
2022-10-01T23:17:51.968Z,16.44
2022-10-01T23:20:31.697Z,16.54
2022-10-01T23:23:24.307Z,16.60
2022-10-01T23:26:16.637Z,16.62
2022-10-01T23:28:46.968Z,16.56
2022-10-01T23:31:38.967Z,16.49
2022-10-01T23:34:36.189Z,16.36
2022-10-01T23:37:19.116Z,16.21
2022-10-01T23:40:00.249Z,16.10
2022-10-01T23:42:35.813Z,15.95
2022-10-01T23:45:38.599Z,15.88
2022-10-01T23:48:10.885Z,15.78
2022-10-01T23:50:44.655Z,15.66
2022-10-01T23:53:17.424Z,15.79
2022-10-01T23:56:09.526Z,15.68
2022-10-01T23:58:50.820Z,15.46
